Flight Track Log - Related Links

Times and Time Zones

All times are in EDT time to prevent confusion due to time zone crossing. See the UAL4695 flight status page for this flight to view local times or setup timezone preferences in your user account.

Time Position Orientation Groundspeed Altitude Reporting Facility
EDT Latitude Longitude Course Direction KTS MPH feet Rate Location/Type
Thu 10:58:00 PM 41.0374 -73.7747 40° Northeast  Level FlightAware Approximate
Thu 10:59:00 PM 41.1100 -73.6930 40° Northeast  Level FlightAware Approximate
Thu 11:00:00 PM 41.1891 -73.6247 48° Northeast  Level FlightAware Approximate
Thu 11:01:00 PM 41.2596 -73.5404 37° Northeast  Level FlightAware Approximate
Thu 11:02:00 PM 41.3358 -73.4642 37° Northeast  Level FlightAware Approximate
Thu 11:03:00 PM 41.4054 -73.3779 37° Northeast  Level FlightAware Approximate
Thu 11:04:00 PM 41.4756 -73.2955 21° North  Level FlightAware Approximate
Thu 11:05:00 PM 41.5402 -73.2086 41° Northeast  Level FlightAware Approximate
Thu 11:06:00 PM 41.6120 -73.1249 41° Northeast  Level FlightAware Approximate
Thu 11:07:00 PM 41.6992 -73.1079 340° North  Level FlightAware Approximate
Thu 11:08:00 PM 41.7929 -73.1275 354° North  Level FlightAware Approximate
Thu 11:09:00 PM 41.8877 -73.1410 354° North  Level FlightAware Approximate
Thu 11:10:00 PM 41.9824 -73.1546 354° North  Level FlightAware Approximate
Thu 11:11:00 PM 42.0771 -73.1687 352° North  Level FlightAware Approximate
Thu 11:12:00 PM 42.1713 -73.1875 352° North  Level FlightAware Approximate
Thu 11:13:00 PM 42.2656 -73.2063 352° North  Level FlightAware Approximate
Thu 11:14:00 PM 42.3598 -73.2251 352° North  Level FlightAware Approximate
Thu 11:15:00 PM 42.4541 -73.2440 352° North  Level FlightAware Approximate
Thu 11:16:00 PM 42.5483 -73.2630 352° North  Level FlightAware Approximate
Thu 11:17:00 PM 42.5942 -73.1696 73° East  Level FlightAware Approximate
Thu 11:18:00 PM 42.6227 -73.0461 73° East  Level FlightAware Approximate
Thu 11:19:00 PM 42.6447 -72.9214 71° East  Level FlightAware Approximate
Thu 11:20:00 PM 42.6749 -72.7985 72° East  Level FlightAware Approximate
Thu 11:21:00 PM 42.7039 -72.6750 72° East  Level FlightAware Approximate
Thu 11:22:00 PM 42.7328 -72.5515 72° East  Level FlightAware Approximate
Thu 11:23:00 PM 42.7615 -72.4278 72° East  Level FlightAware Approximate
Thu 11:24:00 PM 42.7833 -72.3026 90° East  Level FlightAware Approximate
Thu 11:25:00 PM 42.7934 -72.1736 83° East  Level FlightAware Approximate
Thu 11:26:00 PM 42.8051 -72.0447 83° East  Level FlightAware Approximate
Thu 11:27:00 PM 42.8167 -71.9158 90° East  Level FlightAware Approximate
Thu 11:28:00 PM 42.8188 -71.7862 78° East  Level FlightAware Approximate
Thu 11:29:00 PM 42.8384 -71.6591 78° East  Level FlightAware Approximate
Thu 11:30:00 PM 42.8500 -71.5308 90° East  Level FlightAware Approximate
Thu 11:31:00 PM 42.8607 -71.4025 77° East  Level FlightAware Approximate
Thu 11:32:00 PM 42.9156 -71.4319 316° Northwest  Level FlightAware Approximate
Thu 11:33:00 PM 42.9167 -71.4333 316° Northwest  Level FlightAware Approximate
Thu 11:34:00 PM 42.9328 -71.4358 316° Northwest  Level Estimated
Thu 11:35:00 PM 42.9328 -71.4358 316° Northwest  Level Estimated
Thu 11:36:00 PM 42.9328 -71.4358 316° Northwest  Level Estimated

Login

Don't have an account? Register now (free) for customized features, flight alerts, and more!